createdAt,value
2023-04-27T00:01:42.589Z,7.65
2023-04-27T00:03:46.396Z,8.45
2023-04-27T00:05:49.465Z,7.75
2023-04-27T00:07:55.553Z,7.75
2023-04-27T00:09:58.677Z,8.45
2023-04-27T00:12:01.678Z,8.85
2023-04-27T00:14:04.255Z,7.82
2023-04-27T00:16:07.465Z,8.45
2023-04-27T00:18:10.033Z,7.47
2023-04-27T00:20:12.776Z,7.95
2023-04-27T00:22:15.394Z,8.50
2023-04-27T00:24:18.227Z,6.78
2023-04-27T00:26:22.748Z,5.95
2023-04-27T00:28:28.126Z,6.28
2023-04-27T00:30:34.231Z,6.45
2023-04-27T00:32:37.006Z,7.65
2023-04-27T00:34:40.459Z,8.02
2023-04-27T00:36:43.224Z,7.25
2023-04-27T00:38:46.006Z,9.85
2023-04-27T00:40:52.474Z,8.65
2023-04-27T00:42:58.321Z,7.03
2023-04-27T00:45:02.213Z,7.97
2023-04-27T00:47:05.231Z,7.10
2023-04-27T00:49:07.975Z,7.13
2023-04-27T00:51:11.147Z,6.72
2023-04-27T00:53:14.771Z,6.85
2023-04-27T00:55:18.526Z,6.50
2023-04-27T00:57:21.734Z,6.57
2023-04-27T00:59:24.456Z,7.00
2023-04-27T01:01:27.630Z,6.55
2023-04-27T01:03:31.217Z,6.97
2023-04-27T01:05:35.137Z,7.57
2023-04-27T01:07:39.614Z,6.88
2023-04-27T01:09:42.874Z,7.70
2023-04-27T01:11:46.077Z,7.55
2023-04-27T01:13:48.596Z,7.47
2023-04-27T01:15:51.935Z,7.28
2023-04-27T01:18:01.862Z,6.70
2023-04-27T01:20:07.628Z,6.70
2023-04-27T01:22:10.579Z,6.13
2023-04-27T01:24:14.068Z,5.75
2023-04-27T01:26:17.049Z,7.35
2023-04-27T01:28:19.495Z,7.07
2023-04-27T01:30:25.467Z,6.57
2023-04-27T01:32:28.196Z,7.22
2023-04-27T01:34:31.069Z,6.45
2023-04-27T01:36:33.690Z,6.05
2023-04-27T01:38:37.462Z,5.85
2023-04-27T01:40:40.286Z,6.13
2023-04-27T01:42:43.267Z,6.82
2023-04-27T01:44:45.877Z,6.55
2023-04-27T01:46:49.145Z,4.80
2023-04-27T01:48:51.864Z,5.82
2023-04-27T01:50:54.596Z,6.35
2023-04-27T01:53:00.731Z,5.80
2023-04-27T01:55:04.982Z,5.65
2023-04-27T01:57:07.814Z,6.60
2023-04-27T01:59:10.492Z,6.35
2023-04-27T02:01:13.439Z,5.35
2023-04-27T02:03:19.503Z,5.40
2023-04-27T02:05:22.329Z,5.30
2023-04-27T02:07:24.717Z,5.70
2023-04-27T02:09:27.826Z,5.22
2023-04-27T02:11:30.443Z,8.05
2023-04-27T02:13:33.323Z,6.40
2023-04-27T02:15:39.551Z,6.63
2023-04-27T02:17:42.298Z,6.28
2023-04-27T02:19:44.873Z,6.88
2023-04-27T02:21:47.378Z,6.00
2023-04-27T02:23:50.082Z,6.07
2023-04-27T02:25:56.219Z,6.20
2023-04-27T02:27:59.183Z,6.82
2023-04-27T02:30:11.945Z,6.13
2023-04-27T02:32:15.052Z,7.40
2023-04-27T02:34:17.668Z,8.80
2023-04-27T02:36:20.469Z,7.75
2023-04-27T02:38:23.897Z,7.97
2023-04-27T02:40:26.754Z,6.65
2023-04-27T02:42:30.869Z,5.72
2023-04-27T02:44:33.850Z,6.07
2023-04-27T02:46:36.752Z,6.93
2023-04-27T02:48:39.811Z,8.63
2023-04-27T02:50:44.088Z,7.32
2023-04-27T02:52:46.717Z,7.47
2023-04-27T02:54:49.273Z,6.28
2023-04-27T02:56:52.081Z,7.40
2023-04-27T02:58:54.971Z,7.28
2023-04-27T03:00:58.381Z,9.82
2023-04-27T03:03:01.354Z,6.97
2023-04-27T03:05:05.596Z,8.02
2023-04-27T03:07:08.280Z,7.70
2023-04-27T03:09:13.784Z,6.55
2023-04-27T03:11:17.033Z,8.88
2023-04-27T03:13:19.788Z,9.95
2023-04-27T03:15:22.944Z,7.50
2023-04-27T03:17:25.924Z,7.55
2023-04-27T03:19:28.422Z,6.85
2023-04-27T03:21:33.530Z,5.28
2023-04-27T03:23:36.604Z,5.53
2023-04-27T03:25:39.530Z,7.78
2023-04-27T03:27:44.209Z,6.70
2023-04-27T03:29:47.713Z,6.65
2023-04-27T03:31:50.963Z,7.05
2023-04-27T03:33:54.208Z,6.80
2023-04-27T03:35:59.254Z,7.40
2023-04-27T03:38:02.425Z,7.00
2023-04-27T03:40:09.602Z,7.68
2023-04-27T03:42:12.731Z,6.35
2023-04-27T03:44:16.023Z,6.90
2023-04-27T03:46:20.184Z,5.80
2023-04-27T03:48:23.573Z,5.82
2023-04-27T03:50:30.189Z,5.97
2023-04-27T03:52:33.405Z,5.93
2023-04-27T03:54:36.706Z,5.30
2023-04-27T03:56:39.249Z,5.22
2023-04-27T03:58:44.816Z,5.55
2023-04-27T04:00:54.875Z,5.70
2023-04-27T04:02:58.505Z,5.50
2023-04-27T04:05:01.804Z,6.50
2023-04-27T04:07:04.374Z,6.45
2023-04-27T04:09:07.171Z,6.15
2023-04-27T04:11:10.164Z,5.43
2023-04-27T04:13:13.162Z,5.80
2023-04-27T04:15:16.748Z,5.72
2023-04-27T04:17:19.486Z,5.32
2023-04-27T04:19:22.844Z,6.47
2023-04-27T04:21:25.570Z,6.10
2023-04-27T04:23:28.856Z,5.85
2023-04-27T04:25:32.436Z,6.28
2023-04-27T04:27:34.947Z,6.88
2023-04-27T04:29:38.181Z,6.40
2023-04-27T04:31:41.048Z,5.65
2023-04-27T04:33:45.281Z,6.38
2023-04-27T04:35:50.649Z,6.78
2023-04-27T04:37:54.235Z,5.82
2023-04-27T04:39:57.217Z,5.88
2023-04-27T04:42:01.184Z,5.35
2023-04-27T04:44:06.380Z,6.18
2023-04-27T04:46:09.873Z,5.40
2023-04-27T04:48:15.451Z,5.90
2023-04-27T04:50:18.339Z,5.95
2023-04-27T04:52:21.537Z,5.47
2023-04-27T04:54:24.617Z,6.50
2023-04-27T04:56:27.581Z,5.70
2023-04-27T04:58:31.712Z,6.32
2023-04-27T05:00:34.156Z,5.45
2023-04-27T05:02:37.196Z,6.30
2023-04-27T05:04:39.920Z,5.25
2023-04-27T05:06:43.061Z,5.38
2023-04-27T05:08:45.886Z,5.55
2023-04-27T05:10:52.351Z,5.80
2023-04-27T05:12:54.998Z,5.60
2023-04-27T05:14:57.896Z,5.70
2023-04-27T05:17:00.384Z,5.50
2023-04-27T05:19:03.003Z,6.50
2023-04-27T05:21:05.873Z,5.53
2023-04-27T05:23:08.569Z,5.85
2023-04-27T05:25:11.419Z,5.35
2023-04-27T05:27:15.188Z,5.50
2023-04-27T05:29:17.926Z,6.07
2023-04-27T05:31:20.565Z,5.88
2023-04-27T05:33:23.199Z,5.63
2023-04-27T05:35:25.980Z,4.80
2023-04-27T05:37:28.705Z,5.35
2023-04-27T05:39:31.416Z,5.80
2023-04-27T05:41:33.841Z,5.28
2023-04-27T05:43:38.939Z,5.53
2023-04-27T05:45:42.355Z,5.60
2023-04-27T05:47:45.085Z,5.50
2023-04-27T05:49:52.826Z,5.18
2023-04-27T05:51:55.765Z,5.35
2023-04-27T05:54:00.289Z,5.20
2023-04-27T05:56:04.743Z,5.07
2023-04-27T05:58:08.996Z,4.47
2023-04-27T06:00:12.972Z,5.07
2023-04-27T06:02:15.728Z,5.40
2023-04-27T06:04:18.519Z,6.05
2023-04-27T06:06:21.770Z,4.32
2023-04-27T06:08:24.683Z,5.28
2023-04-27T06:10:27.536Z,4.60
2023-04-27T06:12:30.111Z,4.57
2023-04-27T06:14:34.730Z,4.65
2023-04-27T06:16:37.590Z,4.57
2023-04-27T06:18:40.496Z,5.10
2023-04-27T06:20:43.455Z,4.53
2023-04-27T06:22:47.594Z,4.25
2023-04-27T06:24:50.220Z,4.40
2023-04-27T06:26:52.958Z,4.07
2023-04-27T06:28:56.597Z,4.55
2023-04-27T06:30:59.345Z,4.72
2023-04-27T06:33:02.993Z,5.05
2023-04-27T06:35:06.696Z,3.60
2023-04-27T06:37:09.840Z,4.35
2023-04-27T06:39:13.119Z,3.53
2023-04-27T06:41:17.206Z,3.88
2023-04-27T06:45:30.400Z,4.25
2023-04-27T06:47:34.024Z,3.60
2023-04-27T06:49:37.281Z,3.90
2023-04-27T06:51:40.919Z,3.50
2023-04-27T06:53:43.879Z,3.60
2023-04-27T06:55:48.562Z,3.67
2023-04-27T06:57:52.017Z,3.45
2023-04-27T06:59:55.283Z,4.25
2023-04-27T07:02:02.642Z,4.18
2023-04-27T07:04:07.057Z,4.18
2023-04-27T07:06:10.521Z,3.60
2023-04-27T07:08:13.424Z,3.67
2023-04-27T07:10:16.736Z,3.80
2023-04-27T07:12:20.090Z,3.45
2023-04-27T07:14:24.402Z,4.35
2023-04-27T07:16:27.826Z,3.50
2023-04-27T07:18:31.399Z,3.70
2023-04-27T07:20:38.751Z,3.80
2023-04-27T07:22:42.313Z,3.80
2023-04-27T07:24:47.343Z,3.67
2023-04-27T07:26:52.099Z,4.10
2023-04-27T07:28:58.225Z,3.55
2023-04-27T07:31:05.389Z,3.10
2023-04-27T07:33:11.518Z,3.70
2023-04-27T07:35:16.535Z,3.53
2023-04-27T07:37:22.445Z,3.45
2023-04-27T07:39:27.460Z,3.78
2023-04-27T07:41:32.458Z,3.20
2023-04-27T07:43:37.311Z,3.83
2023-04-27T07:45:43.053Z,3.70
2023-04-27T07:47:48.391Z,3.72
2023-04-27T07:49:53.857Z,3.75
2023-04-27T07:51:58.431Z,3.20
2023-04-27T07:54:04.927Z,2.67
2023-04-27T07:56:10.853Z,3.45
2023-04-27T07:58:15.492Z,3.75
2023-04-27T08:00:20.600Z,3.20
2023-04-27T08:02:25.703Z,3.30
2023-04-27T08:04:30.819Z,3.35
2023-04-27T08:06:36.250Z,4.07
2023-04-27T08:08:41.794Z,3.22
2023-04-27T08:10:47.300Z,3.42
2023-04-27T08:12:52.795Z,2.92
2023-04-27T08:14:57.771Z,3.25
2023-04-27T08:17:02.929Z,3.75
2023-04-27T08:19:08.151Z,2.85
2023-04-27T08:21:12.926Z,4.35
2023-04-27T08:23:17.483Z,3.50
2023-04-27T08:25:22.308Z,3.45
2023-04-27T08:27:27.154Z,3.45
2023-04-27T08:29:32.019Z,3.10
2023-04-27T08:31:36.605Z,3.13
2023-04-27T08:33:41.481Z,3.45
2023-04-27T08:35:46.506Z,3.38
2023-04-27T08:37:51.305Z,3.33
2023-04-27T08:39:56.335Z,3.58
2023-04-27T08:42:00.902Z,3.30
2023-04-27T08:44:09.655Z,4.05
2023-04-27T08:46:14.953Z,3.70
2023-04-27T08:48:20.957Z,3.25
2023-04-27T08:50:26.264Z,3.42
2023-04-27T08:52:31.090Z,3.60
2023-04-27T08:54:36.411Z,3.83
2023-04-27T08:56:41.593Z,3.65
2023-04-27T08:58:46.200Z,3.90
2023-04-27T09:00:52.637Z,4.03
2023-04-27T09:02:57.560Z,4.22
2023-04-27T09:05:02.669Z,3.85
2023-04-27T09:07:17.582Z,3.95
2023-04-27T09:09:25.922Z,3.88
2023-04-27T09:11:40.983Z,3.80
2023-04-27T09:13:47.263Z,4.05
2023-04-27T09:15:53.139Z,4.07
2023-04-27T09:17:58.961Z,4.22
2023-04-27T09:20:13.913Z,4.30
2023-04-27T09:22:18.764Z,4.18
2023-04-27T09:24:24.397Z,3.38
2023-04-27T09:26:29.422Z,4.15
2023-04-27T09:28:35.017Z,3.78
2023-04-27T09:30:40.192Z,3.97
2023-04-27T09:32:57.101Z,3.42
2023-04-27T09:35:02.169Z,3.47
2023-04-27T09:37:07.386Z,2.90
2023-04-27T09:39:12.569Z,3.47
2023-04-27T09:41:18.236Z,3.55
2023-04-27T09:43:24.091Z,3.65
2023-04-27T09:45:29.083Z,3.83
2023-04-27T09:47:35.980Z,3.42
2023-04-27T09:49:42.121Z,3.67
2023-04-27T09:51:47.152Z,3.33
2023-04-27T09:53:57.689Z,4.22
2023-04-27T09:56:38.862Z,4.13
2023-04-27T09:59:08.218Z,3.47
2023-04-27T10:01:28.051Z,3.95
2023-04-27T10:04:16.904Z,3.40
2023-04-27T10:06:49.944Z,3.42
2023-04-27T10:08:54.935Z,3.45
2023-04-27T10:11:00.554Z,3.58
2023-04-27T10:13:06.125Z,3.75
2023-04-27T10:15:18.249Z,3.13
2023-04-27T10:17:31.285Z,2.97
2023-04-27T10:19:36.351Z,3.22
2023-04-27T10:22:06.115Z,3.58
2023-04-27T10:24:11.254Z,2.63
2023-04-27T10:26:27.638Z,2.75
2023-04-27T10:28:40.883Z,3.00
2023-04-27T10:30:47.851Z,3.22
2023-04-27T10:32:54.796Z,3.65
2023-04-27T10:35:10.510Z,3.10
2023-04-27T10:37:15.692Z,3.53
2023-04-27T10:39:35.931Z,3.15
2023-04-27T10:41:55.558Z,2.90
2023-04-27T10:44:15.368Z,3.60
2023-04-27T10:46:20.408Z,3.58
2023-04-27T10:48:25.160Z,3.20
2023-04-27T10:50:30.275Z,3.50
2023-04-27T10:52:35.511Z,3.65
2023-04-27T10:54:41.244Z,3.33
2023-04-27T10:56:46.124Z,4.63
2023-04-27T10:58:51.172Z,3.42
2023-04-27T11:00:56.563Z,3.25
2023-04-27T11:03:17.450Z,2.95
2023-04-27T11:05:26.082Z,3.00
2023-04-27T11:07:30.866Z,3.33
2023-04-27T11:09:36.964Z,2.47
2023-04-27T11:11:46.883Z,3.05
2023-04-27T11:13:53.659Z,3.15
2023-04-27T11:16:01.514Z,3.15
2023-04-27T11:18:06.893Z,3.03
2023-04-27T11:20:12.191Z,2.97
2023-04-27T11:22:17.825Z,3.50
2023-04-27T11:24:22.333Z,2.90
2023-04-27T11:26:27.546Z,3.38
2023-04-27T11:28:32.410Z,3.08
2023-04-27T11:30:37.304Z,3.13
2023-04-27T11:32:44.555Z,3.42
2023-04-27T11:34:56.689Z,3.80
2023-04-27T11:37:17.827Z,3.40
2023-04-27T11:39:24.230Z,3.92
2023-04-27T11:41:35.935Z,3.80
2023-04-27T11:43:46.760Z,3.67
2023-04-27T11:45:51.437Z,3.70
2023-04-27T11:47:56.128Z,4.50
2023-04-27T11:50:06.915Z,3.08
2023-04-27T11:52:12.338Z,2.97
2023-04-27T11:54:17.397Z,3.30
2023-04-27T11:56:22.298Z,3.25
2023-04-27T11:58:27.225Z,3.42
2023-04-27T12:00:32.206Z,3.85
2023-04-27T12:02:37.689Z,3.63
2023-04-27T12:04:44.632Z,3.63
2023-04-27T12:06:49.899Z,3.40
2023-04-27T12:08:54.737Z,4.07
2023-04-27T12:10:59.586Z,3.53
2023-04-27T12:13:04.725Z,3.40
2023-04-27T12:15:10.968Z,3.78
2023-04-27T12:17:15.969Z,3.92
2023-04-27T12:19:20.799Z,3.72
2023-04-27T12:21:25.288Z,2.83
2023-04-27T12:23:30.149Z,3.08
2023-04-27T12:25:35.352Z,3.50
2023-04-27T12:27:39.957Z,2.78
2023-04-27T12:29:44.543Z,3.22
2023-04-27T12:31:49.488Z,3.22
2023-04-27T12:33:54.897Z,2.83
2023-04-27T12:35:59.939Z,3.15
2023-04-27T12:38:04.425Z,2.70
2023-04-27T12:40:09.764Z,2.97
2023-04-27T12:42:14.267Z,2.50
2023-04-27T12:44:21.341Z,2.90
2023-04-27T12:46:25.882Z,2.70
2023-04-27T12:48:30.699Z,2.13
2023-04-27T12:50:35.386Z,2.63
2023-04-27T12:52:39.882Z,2.58
2023-04-27T12:54:44.678Z,2.28
2023-04-27T12:56:49.473Z,1.98
2023-04-27T12:58:54.439Z,2.30
2023-04-27T13:00:59.531Z,2.42
2023-04-27T13:03:05.239Z,2.28
2023-04-27T13:05:10.256Z,2.40
2023-04-27T13:07:14.736Z,2.13
2023-04-27T13:09:19.840Z,2.30
2023-04-27T13:11:25.696Z,2.30
2023-04-27T13:13:30.267Z,2.60
2023-04-27T13:15:34.720Z,2.10
2023-04-27T13:17:39.888Z,2.20
2023-04-27T13:21:50.376Z,2.45
2023-04-27T13:23:55.899Z,2.97
2023-04-27T13:26:01.821Z,2.45
2023-04-27T13:28:06.577Z,2.60
2023-04-27T13:30:11.330Z,2.60
2023-04-27T13:32:15.745Z,2.80
2023-04-27T13:34:20.373Z,2.90
2023-04-27T13:36:25.136Z,2.80
2023-04-27T13:38:30.049Z,2.85
2023-04-27T13:40:34.533Z,2.70
2023-04-27T13:42:39.532Z,2.90
2023-04-27T13:44:44.017Z,3.00
2023-04-27T13:46:48.530Z,3.50
2023-04-27T13:48:53.004Z,2.60
2023-04-27T13:50:57.861Z,2.47
2023-04-27T13:53:03.177Z,3.97
2023-04-27T13:55:09.946Z,2.83
2023-04-27T13:57:15.113Z,3.28
2023-04-27T13:59:19.766Z,3.28
2023-04-27T14:01:24.407Z,2.80
2023-04-27T14:03:28.776Z,3.20
2023-04-27T14:05:33.651Z,3.13
2023-04-27T14:07:37.958Z,3.50
2023-04-27T14:09:42.692Z,2.95
2023-04-27T14:11:56.607Z,3.03
2023-04-27T14:14:01.766Z,3.05
2023-04-27T14:16:07.353Z,2.97
2023-04-27T14:18:11.972Z,3.13
2023-04-27T14:20:16.796Z,3.25
2023-04-27T14:22:21.514Z,2.95
2023-04-27T14:24:26.060Z,2.75
2023-04-27T14:26:30.457Z,3.15
2023-04-27T14:28:35.336Z,3.13
2023-04-27T14:30:40.114Z,3.03
2023-04-27T14:32:45.548Z,3.50
2023-04-27T14:34:50.070Z,3.60
2023-04-27T14:36:54.602Z,4.22
2023-04-27T14:38:59.279Z,4.97
2023-04-27T14:41:04.227Z,3.47
2023-04-27T14:43:08.934Z,4.03
2023-04-27T14:45:13.687Z,3.78
2023-04-27T14:47:19.360Z,3.90
2023-04-27T14:49:23.472Z,3.20
2023-04-27T14:51:27.509Z,3.70
2023-04-27T14:53:32.473Z,3.83
2023-04-27T14:55:37.356Z,3.13
2023-04-27T14:57:42.770Z,9.20
2023-04-27T14:59:47.564Z,4.20
2023-04-27T15:01:52.400Z,3.10
2023-04-27T15:03:58.936Z,5.40
2023-04-27T15:06:04.117Z,3.85
2023-04-27T15:08:09.284Z,5.78
2023-04-27T15:10:13.560Z,3.97
2023-04-27T15:12:18.178Z,3.60
2023-04-27T15:14:22.573Z,3.45
2023-04-27T15:16:27.130Z,4.07
2023-04-27T15:18:31.872Z,3.00
2023-04-27T15:20:37.089Z,34.90
2023-04-27T15:22:42.035Z,6.88
2023-04-27T15:24:46.947Z,4.00
2023-04-27T15:26:51.694Z,5.20
2023-04-27T15:28:56.424Z,3.97
2023-04-27T15:31:01.902Z,3.78
2023-04-27T15:33:09.567Z,4.50
2023-04-27T15:35:14.567Z,3.95
2023-04-27T15:37:19.880Z,4.10
2023-04-27T15:39:24.643Z,4.45
2023-04-27T15:41:29.300Z,3.92
2023-04-27T15:43:34.150Z,3.58
2023-04-27T15:45:38.750Z,3.70
2023-04-27T15:47:43.875Z,3.53
2023-04-27T15:49:56.987Z,3.60
2023-04-27T15:52:02.457Z,3.60
2023-04-27T15:54:07.239Z,3.83
2023-04-27T15:56:12.070Z,3.90
2023-04-27T15:58:17.130Z,5.55
2023-04-27T16:00:22.909Z,3.40
2023-04-27T16:02:28.277Z,3.45
2023-04-27T16:04:32.937Z,4.00
2023-04-27T16:06:38.023Z,3.55
2023-04-27T16:08:42.662Z,4.10
2023-04-27T16:10:47.393Z,4.20
2023-04-27T16:12:52.265Z,3.88
2023-04-27T16:15:00.065Z,4.07
2023-04-27T16:17:04.838Z,3.42
2023-04-27T16:19:09.889Z,3.95
2023-04-27T16:21:14.482Z,3.88
2023-04-27T16:23:19.204Z,4.32
2023-04-27T16:25:24.485Z,3.92
2023-04-27T16:27:29.248Z,3.42
2023-04-27T16:29:34.878Z,3.17
2023-04-27T16:31:39.954Z,3.13
2023-04-27T16:33:44.977Z,3.55
2023-04-27T16:35:49.945Z,3.13
2023-04-27T16:37:55.086Z,3.33
2023-04-27T16:40:02.086Z,3.35
2023-04-27T16:42:07.040Z,3.00
2023-04-27T16:44:13.876Z,4.03
2023-04-27T16:50:27.955Z,3.15
2023-04-27T16:52:33.063Z,3.08
2023-04-27T16:54:38.422Z,2.95
2023-04-27T16:56:43.649Z,2.72
2023-04-27T16:58:48.493Z,3.30
2023-04-27T17:00:53.472Z,3.00
2023-04-27T17:02:58.427Z,2.30
2023-04-27T17:05:03.627Z,3.55
2023-04-27T17:07:10.015Z,2.88
2023-04-27T17:09:15.882Z,3.38
2023-04-27T17:11:21.015Z,3.28
2023-04-27T17:13:27.085Z,3.90
2023-04-27T17:15:32.149Z,5.57
2023-04-27T17:17:37.085Z,7.13
2023-04-27T17:19:41.921Z,5.68
2023-04-27T17:21:46.692Z,4.45
2023-04-27T17:23:53.886Z,4.55
2023-04-27T17:25:58.987Z,3.30
2023-04-27T17:28:04.501Z,2.92
2023-04-27T17:30:10.520Z,3.28
2023-04-27T17:32:16.142Z,3.35
2023-04-27T17:34:21.722Z,3.97
2023-04-27T17:36:27.464Z,3.20
2023-04-27T17:38:32.483Z,3.15
2023-04-27T17:40:37.534Z,3.38
2023-04-27T17:42:42.606Z,2.88
2023-04-27T17:44:48.516Z,3.03
2023-04-27T17:46:54.246Z,3.28
2023-04-27T17:48:59.677Z,3.17
2023-04-27T17:51:05.569Z,2.72
2023-04-27T17:53:11.158Z,3.08
2023-04-27T17:55:16.856Z,3.10
2023-04-27T17:57:22.754Z,3.75
2023-04-27T17:59:29.859Z,2.85
2023-04-27T18:01:35.822Z,3.35
2023-04-27T18:03:42.750Z,2.58
2023-04-27T18:05:48.750Z,3.45
2023-04-27T18:07:55.066Z,3.03
2023-04-27T18:10:00.891Z,3.17
2023-04-27T18:12:11.976Z,2.63
2023-04-27T18:14:17.506Z,4.13
2023-04-27T18:16:23.885Z,3.03
2023-04-27T18:18:29.613Z,2.63
2023-04-27T18:20:35.458Z,3.85
2023-04-27T18:22:41.905Z,4.22
2023-04-27T18:24:48.820Z,4.22
2023-04-27T18:26:54.758Z,4.65
2023-04-27T18:28:59.907Z,5.32
2023-04-27T18:31:05.393Z,4.22
2023-04-27T18:33:10.925Z,3.90
2023-04-27T18:35:16.951Z,4.38
2023-04-27T18:37:22.701Z,3.40
2023-04-27T18:39:28.371Z,3.83
2023-04-27T18:41:33.555Z,4.95
2023-04-27T18:43:39.658Z,4.38
2023-04-27T18:45:46.031Z,4.20
2023-04-27T18:47:52.618Z,3.42
2023-04-27T18:49:59.006Z,3.75
2023-04-27T18:52:07.998Z,3.63
2023-04-27T18:54:13.327Z,3.22
2023-04-27T18:56:24.674Z,2.72
2023-04-27T18:58:33.051Z,3.10
2023-04-27T19:00:44.906Z,2.78
2023-04-27T19:02:53.653Z,2.92
2023-04-27T19:05:11.112Z,3.78
2023-04-27T19:07:19.012Z,3.22
2023-04-27T19:09:29.751Z,4.18
2023-04-27T19:11:44.471Z,3.75
2023-04-27T19:13:51.143Z,3.97
2023-04-27T19:15:58.565Z,3.65
2023-04-27T19:18:11.321Z,4.25
2023-04-27T19:20:19.981Z,4.32
2023-04-27T19:22:30.512Z,4.30
2023-04-27T19:24:40.557Z,4.25
2023-04-27T19:26:51.562Z,3.72
2023-04-27T19:29:01.191Z,4.22
2023-04-27T19:31:14.483Z,4.68
2023-04-27T19:33:25.941Z,3.70
2023-04-27T19:35:36.136Z,4.30
2023-04-27T19:37:47.433Z,4.97
2023-04-27T19:39:58.574Z,5.63
2023-04-27T19:42:09.665Z,4.88
2023-04-27T19:44:20.611Z,5.75
2023-04-27T19:46:37.347Z,4.95
2023-04-27T19:48:48.694Z,5.70
2023-04-27T19:50:57.873Z,6.60
2023-04-27T19:53:07.806Z,5.50
2023-04-27T19:55:19.872Z,5.78
2023-04-27T19:57:32.723Z,5.07
2023-04-27T19:59:42.433Z,4.78
2023-04-27T20:01:53.705Z,4.07
2023-04-27T20:04:03.029Z,3.95
2023-04-27T20:06:13.973Z,3.47
2023-04-27T20:08:25.332Z,3.55
2023-04-27T20:10:36.169Z,4.25
2023-04-27T20:12:56.533Z,4.90
2023-04-27T20:17:15.298Z,5.95
2023-04-27T20:19:27.805Z,6.50
2023-04-27T20:21:36.257Z,7.30
2023-04-27T20:23:42.205Z,7.03
2023-04-27T20:25:45.293Z,5.90
2023-04-27T20:27:48.413Z,5.93
2023-04-27T20:29:51.932Z,6.07
2023-04-27T20:31:55.070Z,6.00
2023-04-27T20:33:58.096Z,5.22
2023-04-27T20:36:10.357Z,4.10
2023-04-27T20:38:23.110Z,4.97
2023-04-27T20:40:27.062Z,4.47
2023-04-27T20:42:30.836Z,6.05
2023-04-27T20:44:34.506Z,4.55
2023-04-27T20:46:37.627Z,5.90
2023-04-27T20:48:40.738Z,4.60
2023-04-27T20:50:43.806Z,6.63
2023-04-27T20:52:47.220Z,6.30
2023-04-27T20:54:50.411Z,6.22
2023-04-27T20:56:53.368Z,7.13
2023-04-27T20:58:56.275Z,6.50
2023-04-27T21:00:59.692Z,8.70
2023-04-27T21:03:03.392Z,7.80
2023-04-27T21:05:06.868Z,7.07
2023-04-27T21:07:09.864Z,6.40
2023-04-27T21:09:13.307Z,7.47
2023-04-27T21:11:18.111Z,7.75
2023-04-27T21:13:22.231Z,9.10
2023-04-27T21:15:25.863Z,7.50
2023-04-27T21:17:29.174Z,5.60
2023-04-27T21:19:32.273Z,7.35
2023-04-27T21:21:35.828Z,6.10
2023-04-27T21:23:39.336Z,6.50
2023-04-27T21:25:47.558Z,7.35
2023-04-27T21:27:50.744Z,7.53
2023-04-27T21:29:53.704Z,6.45
2023-04-27T21:31:56.993Z,6.95
2023-04-27T21:34:00.883Z,7.65
2023-04-27T21:36:05.318Z,7.97
2023-04-27T21:38:08.211Z,7.75
2023-04-27T21:40:11.803Z,9.20
2023-04-27T21:42:16.598Z,7.80
2023-04-27T21:44:19.880Z,6.82
2023-04-27T21:46:24.293Z,6.35
2023-04-27T21:48:27.510Z,6.10
2023-04-27T21:50:31.087Z,8.70
2023-04-27T21:52:33.959Z,6.85
2023-04-27T21:54:37.071Z,7.78
2023-04-27T21:56:40.184Z,9.65
2023-04-27T21:58:43.103Z,9.95
2023-04-27T22:00:47.391Z,8.40
2023-04-27T22:02:51.605Z,10.90
2023-04-27T22:04:55.382Z,10.45
2023-04-27T22:06:58.418Z,9.68
2023-04-27T22:09:02.023Z,8.70
2023-04-27T22:11:05.224Z,9.00
2023-04-27T22:13:18.845Z,10.68
2023-04-27T22:15:22.891Z,10.00
2023-04-27T22:17:27.008Z,9.35
2023-04-27T22:19:30.965Z,8.73
2023-04-27T22:21:34.084Z,8.10
2023-04-27T22:23:37.659Z,8.75
2023-04-27T22:25:43.100Z,8.30
2023-04-27T22:27:45.935Z,10.95
2023-04-27T22:29:49.224Z,10.95
2023-04-27T22:31:52.561Z,8.63
2023-04-27T22:33:56.357Z,11.32
2023-04-27T22:36:00.076Z,12.55
2023-04-27T22:38:03.561Z,9.52
2023-04-27T22:40:09.107Z,8.88
2023-04-27T22:42:12.151Z,9.88
2023-04-27T22:44:15.405Z,9.80
2023-04-27T22:46:18.931Z,12.38
2023-04-27T22:48:22.407Z,12.45
2023-04-27T22:50:25.401Z,10.55
2023-04-27T22:52:28.685Z,9.18
2023-04-27T22:54:31.552Z,8.40
2023-04-27T22:56:35.366Z,8.48
2023-04-27T22:58:38.019Z,7.07
2023-04-27T23:00:40.983Z,9.27
2023-04-27T23:02:44.463Z,9.75
2023-04-27T23:04:48.644Z,8.00
2023-04-27T23:06:54.157Z,11.75
2023-04-27T23:08:57.702Z,14.65
2023-04-27T23:11:03.165Z,11.60
2023-04-27T23:13:07.813Z,13.32
2023-04-27T23:15:12.247Z,13.40
2023-04-27T23:17:18.439Z,14.20
2023-04-27T23:19:21.550Z,13.07
2023-04-27T23:21:27.245Z,15.15
2023-04-27T23:23:31.369Z,10.80
2023-04-27T23:25:34.533Z,9.60
2023-04-27T23:27:37.698Z,10.30
2023-04-27T23:29:41.106Z,12.38
2023-04-27T23:31:44.639Z,16.35
2023-04-27T23:33:47.569Z,16.55
2023-04-27T23:35:50.798Z,15.27
2023-04-27T23:37:53.689Z,17.70
2023-04-27T23:39:56.648Z,18.35
2023-04-27T23:41:59.793Z,19.75
2023-04-27T23:44:03.095Z,19.85
2023-04-27T23:46:06.446Z,20.73
2023-04-27T23:48:09.461Z,19.90
2023-04-27T23:50:12.290Z,20.27
2023-04-27T23:52:15.402Z,18.95
2023-04-27T23:54:18.961Z,19.42
2023-04-27T23:56:23.444Z,17.85
2023-04-27T23:58:27.109Z,23.30
